Time;durP1;ratioP1;P1;durP2;ratioP2;P2;SDS_P1;SDS_P2;PMS_P1;PMS_P2;Temp;Humidity;BMP_temperature;BMP_pressure;BME280_temperature;BME280_humidity;BME280_pressure;Samples;Min_cycle;Max_cycle;Signal;HPM_P1;HPM_P2
2023/06/22 00:01:13;;;;;;;12.88;5.43;;;;;;;-145.69;nan;52147.34;5073091;28;20203;-82
2023/06/22 00:03:40;;;;;;;15.05;5.30;;;;;;;-145.69;nan;52188.91;5072821;28;20289;-83
2023/06/22 00:06:08;;;;;;;20.25;5.20;;;;;;;-145.69;nan;52192.88;5072814;28;20206;-83
2023/06/22 00:08:34;;;;;;;17.85;6.03;;;;;;;-145.69;nan;52184.97;5072398;28;20209;-83
2023/06/22 00:11:01;;;;;;;16.50;5.85;;;;;;;-145.69;nan;52179.03;5061330;28;20230;-83
2023/06/22 00:13:27;;;;;;;18.23;5.65;;;;;;;-145.69;nan;52190.91;5072050;28;20213;-84
2023/06/22 00:15:54;;;;;;;14.38;5.18;;;;;;;-145.69;nan;52167.13;5072349;28;20675;-83
2023/06/22 00:18:21;;;;;;;11.40;5.18;;;;;;;-145.69;nan;52177.03;5072716;28;20210;-82
2023/06/22 00:20:47;;;;;;;11.02;5.03;;;;;;;-145.69;nan;52167.13;5072844;28;20206;-83
2023/06/22 00:23:17;;;;;;;15.02;5.75;;;;;;;-145.69;nan;52177.03;5072671;28;20205;-83
2023/06/22 00:25:43;;;;;;;15.55;5.70;;;;;;;-145.69;nan;52175.06;5072540;28;20226;-83
2023/06/22 00:28:10;;;;;;;17.45;6.43;;;;;;;-145.69;nan;52194.88;5072650;28;20252;-82
2023/06/22 00:30:37;;;;;;;12.45;4.80;;;;;;;-145.69;nan;52194.88;5072536;28;20203;-85
2023/06/22 00:33:07;;;;;;;16.27;5.30;;;;;;;-145.69;nan;52192.88;5072885;28;20198;-83
2023/06/22 00:35:34;;;;;;;11.88;5.22;;;;;;;-145.69;nan;52173.09;5072966;28;20256;-83
2023/06/22 00:38:03;;;;;;;12.82;4.97;;;;;;;-145.69;nan;52186.94;5076676;28;20237;-83
2023/06/22 00:40:33;;;;;;;11.88;4.82;;;;;;;-145.69;nan;52222.59;5075886;28;20253;-83
2023/06/22 00:43:00;;;;;;;16.15;5.35;;;;;;;-145.69;nan;52186.94;5076344;28;20662;-82
2023/06/22 00:45:27;;;;;;;18.25;5.35;;;;;;;-145.69;nan;52216.66;5075866;28;20199;-82
2023/06/22 00:47:56;;;;;;;13.85;5.40;;;;;;;-145.69;nan;52194.88;5076195;28;20693;-83
2023/06/22 00:50:26;;;;;;;13.70;5.50;;;;;;;-145.69;nan;52188.91;5075882;28;20282;-83
2023/06/22 00:52:56;;;;;;;10.88;5.05;;;;;;;-145.69;nan;52159.22;5084472;28;20194;-83
2023/06/22 00:55:23;;;;;;;16.23;5.00;;;;;;;-145.69;nan;52190.91;5087761;28;20203;-83
2023/06/22 00:57:55;;;;;;;14.48;4.75;;;;;;;-145.69;nan;52198.81;5076274;28;20202;-83
2023/06/22 01:00:25;;;;;;;11.35;4.47;;;;;;;-145.69;nan;52214.66;5075928;28;20230;-83
2023/06/22 01:02:52;;;;;;;10.88;4.85;;;;;;;-145.69;nan;52179.03;5076110;28;20203;-83
2023/06/22 01:05:20;;;;;;;15.95;4.70;;;;;;;-145.69;nan;52198.81;5075839;28;20227;-82
2023/06/22 01:07:59;;;;;;;11.27;4.57;;;;;;;-145.69;nan;52206.75;5075024;28;20285;-83
2023/06/22 01:10:33;;;;;;;15.68;5.45;;;;;;;-145.69;nan;52226.53;5071230;28;20202;-83
2023/06/22 01:13:04;;;;;;;12.88;5.47;;;;;;;-145.69;nan;52179.03;5074993;28;20434;-83
2023/06/22 01:15:37;;;;;;;15.45;4.43;;;;;;;-145.69;nan;52198.81;5075312;28;20205;-82
2023/06/22 01:18:05;;;;;;;7.68;4.20;;;;;;;-145.69;nan;52202.78;5075561;28;20195;-82
2023/06/22 01:20:34;;;;;;;8.30;4.07;;;;;;;-145.69;nan;52196.84;5075354;28;20225;-83
2023/06/22 01:23:10;;;;;;;11.13;4.90;;;;;;;-145.69;nan;52206.75;5075240;28;20654;-83
2023/06/22 01:25:47;;;;;;;16.58;5.47;;;;;;;-145.69;nan;52230.50;5075230;28;20720;-83
2023/06/22 01:28:25;;;;;;;11.18;4.72;;;;;;;-145.69;nan;52228.53;5075662;28;20210;-83
2023/06/22 01:31:03;;;;;;;8.77;4.25;;;;;;;-145.69;nan;52179.03;5075811;28;20241;-83
2023/06/22 01:33:30;;;;;;;11.02;4.60;;;;;;;-145.69;nan;52230.50;5075844;28;20248;-83
2023/06/22 01:35:56;;;;;;;11.80;4.65;;;;;;;-145.69;nan;52192.88;5075411;28;20206;-82
2023/06/22 01:38:23;;;;;;;11.63;5.75;;;;;;;-145.69;nan;52218.63;5075339;28;20662;-83
2023/06/22 01:40:51;;;;;;;10.18;5.20;;;;;;;-145.69;nan;52222.59;5074955;28;20223;-85
2023/06/22 01:43:18;;;;;;;13.23;5.43;;;;;;;-145.69;nan;52202.78;5070772;28;20596;-82
2023/06/22 01:45:45;;;;;;;16.38;4.70;;;;;;;-145.69;nan;52236.44;5075085;28;20242;-82
2023/06/22 01:48:13;;;;;;;11.20;4.63;;;;;;;-145.69;nan;52226.53;5073794;28;20231;-85
2023/06/22 01:50:40;;;;;;;13.63;5.18;;;;;;;-145.69;nan;52248.34;5075210;28;20225;-83
2023/06/22 01:53:06;;;;;;;12.25;4.63;;;;;;;-145.69;nan;52232.50;5075338;28;20569;-83
2023/06/22 01:55:33;;;;;;;13.10;4.47;;;;;;;-145.69;nan;52238.44;5075070;28;20198;-83
2023/06/22 01:58:00;;;;;;;24.40;4.60;;;;;;;-145.69;nan;52222.59;5075281;28;20206;-83
2023/06/22 02:00:29;;;;;;;12.45;4.85;;;;;;;-145.69;nan;52230.50;5075192;28;20238;-83
2023/06/22 02:03:02;;;;;;;8.68;4.35;;;;;;;-145.69;nan;52238.44;5075290;28;20278;-83
2023/06/22 02:05:37;;;;;;;18.42;5.57;;;;;;;-145.69;nan;52254.28;5074662;28;20223;-83
2023/06/22 02:08:09;;;;;;;11.20;4.15;;;;;;;-145.69;nan;52256.25;5075004;28;20331;-83
2023/06/22 02:10:41;;;;;;;13.73;4.60;;;;;;;-145.69;nan;52238.44;5074447;28;20199;-83
2023/06/22 02:13:13;;;;;;;15.80;5.18;;;;;;;-145.69;nan;52230.50;5074661;28;20206;-83
2023/06/22 02:15:40;;;;;;;16.05;5.63;;;;;;;-145.69;nan;52260.22;5074848;28;20202;-83
2023/06/22 02:18:06;;;;;;;12.40;5.40;;;;;;;-145.69;nan;52224.56;5074215;28;20260;-83
2023/06/22 02:20:38;;;;;;;13.73;6.18;;;;;;;-145.69;nan;52230.50;5074119;28;20458;-85
2023/06/22 02:23:04;;;;;;;15.57;5.65;;;;;;;-145.69;nan;52250.31;5074681;28;20241;-83
2023/06/22 02:25:31;;;;;;;11.93;5.40;;;;;;;-145.69;nan;52234.47;5074724;28;20207;-82
2023/06/22 02:27:58;;;;;;;13.45;5.47;;;;;;;-145.69;nan;52274.06;5074451;28;20290;-82
2023/06/22 02:30:27;;;;;;;11.60;5.50;;;;;;;-145.69;nan;52246.34;5074470;28;20214;-83
2023/06/22 02:32:58;;;;;;;10.80;5.35;;;;;;;-145.69;nan;52250.31;5072939;28;20203;-84
2023/06/22 02:35:25;;;;;;;12.52;5.15;;;;;;;-145.69;nan;52244.38;5073728;28;20207;-82
2023/06/22 02:37:53;;;;;;;11.18;5.25;;;;;;;-145.69;nan;52242.38;5074403;28;20202;-82
2023/06/22 02:40:19;;;;;;;10.82;4.55;;;;;;;-145.69;nan;52218.63;5073467;28;20280;-82
2023/06/22 02:42:48;;;;;;;12.48;5.15;;;;;;;-145.69;nan;52258.22;5074114;28;20562;-82
2023/06/22 02:45:15;;;;;;;11.57;4.93;;;;;;;-145.69;nan;52228.53;5074054;28;20206;-81
2023/06/22 02:47:42;;;;;;;11.25;5.35;;;;;;;-145.69;nan;52260.22;5073211;28;20194;-83
2023/06/22 02:50:11;;;;;;;13.70;5.75;;;;;;;-145.69;nan;52204.75;5074257;28;20195;-81
2023/06/22 02:52:40;;;;;;;15.02;5.20;;;;;;;-145.69;nan;52240.41;5073818;28;20684;-82
2023/06/22 02:55:09;;;;;;;10.80;4.70;;;;;;;-145.69;nan;52262.19;5073837;28;20661;-81
2023/06/22 02:57:36;;;;;;;10.52;4.63;;;;;;;-145.69;nan;52270.13;5073835;28;20210;-83
2023/06/22 03:00:16;;;;;;;11.30;4.75;;;;;;;-145.69;nan;52234.47;5073579;28;20313;-81
2023/06/22 03:02:43;;;;;;;14.82;5.72;;;;;;;-145.69;nan;52234.47;5073279;28;20553;-81
2023/06/22 03:05:13;;;;;;;14.02;5.32;;;;;;;-145.69;nan;52214.66;5073263;28;20249;-83
2023/06/22 03:07:41;;;;;;;13.00;4.78;;;;;;;-145.69;nan;52264.16;5073936;28;20198;-81
2023/06/22 03:10:13;;;;;;;11.32;4.55;;;;;;;-145.69;nan;52258.22;5073146;28;20202;-81
2023/06/22 03:12:41;;;;;;;16.85;4.90;;;;;;;-145.69;nan;52266.16;5073602;28;20625;-82
2023/06/22 03:15:09;;;;;;;12.23;4.95;;;;;;;-145.69;nan;52264.16;5073476;28;20214;-83
2023/06/22 03:17:40;;;;;;;8.77;4.63;;;;;;;-145.69;nan;52266.16;5073012;28;20547;-83
2023/06/22 03:20:10;;;;;;;11.75;4.10;;;;;;;-145.69;nan;52256.25;5073226;28;20249;-81
2023/06/22 03:22:37;;;;;;;13.48;4.38;;;;;;;-145.69;nan;52270.13;5073437;28;20226;-83
2023/06/22 03:25:04;;;;;;;11.85;5.13;;;;;;;-145.69;nan;52266.16;5073164;28;20198;-81
2023/06/22 03:27:38;;;;;;;10.20;5.38;;;;;;;-145.69;nan;52256.25;5073443;28;20646;-81
2023/06/22 03:30:12;;;;;;;12.77;4.95;;;;;;;-145.69;nan;52285.97;5073051;28;20194;-81
2023/06/22 03:32:38;;;;;;;16.02;4.65;;;;;;;-145.69;nan;52258.22;5073184;28;20206;-81
2023/06/22 03:35:08;;;;;;;12.65;5.00;;;;;;;-145.69;nan;52276.06;5072560;28;20197;-81
2023/06/22 03:37:34;;;;;;;14.73;5.55;;;;;;;-145.69;nan;52252.28;5072614;28;20195;-82
2023/06/22 03:40:01;;;;;;;10.30;5.15;;;;;;;-145.69;nan;52285.97;5068979;28;20233;-81
2023/06/22 03:42:27;;;;;;;12.25;4.97;;;;;;;-145.69;nan;52266.16;5072938;28;20688;-81
2023/06/22 03:44:55;;;;;;;11.00;5.22;;;;;;;-145.69;nan;52248.34;5073300;28;20195;-81
2023/06/22 03:47:23;;;;;;;14.45;5.60;;;;;;;-145.69;nan;52258.22;5073017;28;20205;-83
2023/06/22 03:49:49;;;;;;;13.23;5.22;;;;;;;-145.69;nan;52258.22;5072938;28;20317;-81
2023/06/22 03:52:17;;;;;;;13.80;5.72;;;;;;;-145.69;nan;52272.09;5072982;28;20209;-80
2023/06/22 03:54:44;;;;;;;11.95;5.45;;;;;;;-145.69;nan;52293.88;5072704;28;20210;-82
2023/06/22 03:57:13;;;;;;;11.45;5.72;;;;;;;-145.69;nan;52270.13;5073147;28;20256;-82
2023/06/22 03:59:44;;;;;;;10.60;4.90;;;;;;;-145.69;nan;52246.34;5072640;28;20250;-81
2023/06/22 04:02:12;;;;;;;16.35;4.93;;;;;;;-145.69;nan;52274.06;5073001;28;20206;-81
2023/06/22 04:04:41;;;;;;;19.33;5.47;;;;;;;-145.69;nan;52262.19;5072590;28;20650;-81
2023/06/22 04:07:12;;;;;;;12.73;5.45;;;;;;;-145.69;nan;52242.38;5073258;28;20206;-82
2023/06/22 04:09:40;;;;;;;12.52;5.00;;;;;;;-145.69;nan;52250.31;5072670;28;20195;-81
2023/06/22 04:12:10;;;;;;;13.23;5.00;;;;;;;-145.69;nan;52244.38;5077647;28;20190;-80
2023/06/22 04:14:36;;;;;;;9.98;5.60;;;;;;;-145.69;nan;52274.06;5078074;28;20198;-81
2023/06/22 04:17:07;;;;;;;13.27;5.65;;;;;;;-145.69;nan;52216.66;5079319;28;20195;-81
2023/06/22 04:19:40;;;;;;;10.98;5.80;;;;;;;-145.69;nan;52240.41;5079298;28;20216;-81
2023/06/22 04:22:11;;;;;;;14.80;5.82;;;;;;;-145.69;nan;52238.44;5079689;28;20221;-81
2023/06/22 04:24:39;;;;;;;12.23;5.93;;;;;;;-145.69;nan;52250.31;5079425;28;20206;-83
2023/06/22 04:27:09;;;;;;;11.48;5.72;;;;;;;-145.69;nan;52240.41;5079206;28;20206;-83
2023/06/22 04:29:48;;;;;;;16.30;4.95;;;;;;;-145.69;nan;52234.47;5079037;28;20202;-82
2023/06/22 04:32:17;;;;;;;17.87;6.03;;;;;;;-145.69;nan;52258.22;5077626;28;20921;-82
2023/06/22 04:34:45;;;;;;;10.35;4.70;;;;;;;-145.69;nan;52230.50;5079052;28;20236;-82
2023/06/22 04:37:23;;;;;;;13.40;5.97;;;;;;;-145.69;nan;52234.47;5079217;28;20203;-82
2023/06/22 04:39:52;;;;;;;14.48;5.80;;;;;;;-145.69;nan;52246.34;5079222;28;20633;-82
2023/06/22 04:42:22;;;;;;;20.25;6.03;;;;;;;-145.69;nan;52264.16;5079009;28;20229;-81
2023/06/22 04:44:49;;;;;;;12.60;5.63;;;;;;;-145.69;nan;52234.47;5078916;28;20221;-83
2023/06/22 04:47:17;;;;;;;17.75;5.65;;;;;;;-145.69;nan;52256.25;5079185;28;20767;-81
2023/06/22 04:49:47;;;;;;;13.40;6.07;;;;;;;-145.69;nan;52206.75;5078838;28;20223;-82
2023/06/22 04:52:17;;;;;;;11.70;5.75;;;;;;;-145.69;nan;52270.13;5078835;28;20203;-82
2023/06/22 04:54:55;;;;;;;12.60;5.55;;;;;;;-145.69;nan;52250.31;5078933;28;20206;-83
2023/06/22 04:57:32;;;;;;;18.08;6.00;;;;;;;-145.69;nan;52222.59;5079110;28;20206;-84
2023/06/22 05:02:41;;;;;;;17.60;6.75;;;;;;;-145.69;nan;52220.59;5077432;28;20198;-83
2023/06/22 05:05:28;;;;;;;15.50;6.30;;;;;;;-145.69;nan;52246.34;5079015;28;20207;-82
2023/06/22 05:08:00;;;;;;;15.38;6.35;;;;;;;-145.69;nan;52264.16;5078523;28;20663;-83
2023/06/22 05:10:27;;;;;;;15.65;6.50;;;;;;;-145.69;nan;52242.38;5078916;28;20483;-83
2023/06/22 05:12:57;;;;;;;9.10;5.13;;;;;;;-145.69;nan;52244.38;5078819;28;20203;-83
2023/06/22 05:15:30;;;;;;;13.75;6.47;;;;;;;-145.69;nan;52258.22;5078998;28;20293;-82
2023/06/22 05:18:05;;;;;;;18.92;6.03;;;;;;;-145.69;nan;52246.34;5079139;28;20309;-83
2023/06/22 05:20:37;;;;;;;14.93;6.10;;;;;;;-145.69;nan;52270.13;5079079;28;20267;-83
2023/06/22 05:23:09;;;;;;;15.43;5.97;;;;;;;-145.69;nan;52240.41;5075544;28;20210;-83
2023/06/22 05:25:43;;;;;;;15.00;5.60;;;;;;;-145.69;nan;52210.72;5074492;28;20203;-83
2023/06/22 05:28:22;;;;;;;13.60;5.95;;;;;;;-145.69;nan;52216.66;5075414;28;20203;-83
2023/06/22 05:30:51;;;;;;;11.95;5.85;;;;;;;-145.69;nan;52220.59;5075294;28;20207;-82
2023/06/22 05:33:20;;;;;;;16.63;5.60;;;;;;;-145.69;nan;52230.50;5075421;28;20810;-82
2023/06/22 05:35:51;;;;;;;13.43;5.32;;;;;;;-145.69;nan;52226.53;5075578;28;20286;-82
2023/06/22 05:38:24;;;;;;;15.02;5.65;;;;;;;-145.69;nan;52222.59;5070977;28;20526;-83
2023/06/22 05:40:50;;;;;;;11.10;4.93;;;;;;;-145.69;nan;52250.31;5075331;28;20266;-82
2023/06/22 05:43:20;;;;;;;13.98;5.25;;;;;;;-145.69;nan;52214.66;5074961;28;20290;-83
2023/06/22 05:45:49;;;;;;;20.83;6.35;;;;;;;-145.69;nan;52210.72;5075349;28;20206;-83
2023/06/22 05:48:21;;;;;;;9.27;4.95;;;;;;;-145.69;nan;52246.34;5075322;28;20226;-82
2023/06/22 05:50:58;;;;;;;14.60;5.78;;;;;;;-145.69;nan;52232.50;5074539;28;20444;-82
2023/06/22 05:53:25;;;;;;;14.57;5.25;;;;;;;-145.69;nan;52222.59;5075108;28;20202;-82
2023/06/22 05:56:04;;;;;;;12.23;4.80;;;;;;;-145.69;nan;52204.75;5074930;28;20722;-82
2023/06/22 05:58:30;;;;;;;15.43;5.15;;;;;;;-145.69;nan;52204.75;5074533;28;20199;-82
2023/06/22 06:01:01;;;;;;;18.15;5.70;;;;;;;-145.69;nan;52230.50;5074567;28;20739;-82
2023/06/22 06:03:33;;;;;;;19.30;5.63;;;;;;;-145.69;nan;52214.66;5074466;28;20187;-82
2023/06/22 06:06:07;;;;;;;14.00;5.22;;;;;;;-145.69;nan;52208.72;5074967;28;20195;-82
2023/06/22 06:08:58;;;;;;;11.30;4.55;;;;;;;-145.69;nan;52198.81;5074739;28;20218;-83
2023/06/22 06:11:26;;;;;;;11.27;4.55;;;;;;;-145.69;nan;52206.75;5074222;28;20210;-83
2023/06/22 06:13:52;;;;;;;14.65;4.88;;;;;;;-145.69;nan;52218.63;5073819;28;20194;-83
2023/06/22 06:16:19;;;;;;;14.00;4.88;;;;;;;-145.69;nan;52218.63;5074929;28;20202;-83
2023/06/22 06:18:45;;;;;;;11.27;4.68;;;;;;;-145.69;nan;52186.94;5074757;28;20230;-82
2023/06/22 06:21:27;;;;;;;14.82;4.63;;;;;;;-145.69;nan;52214.66;5074183;28;20253;-83
2023/06/22 06:23:57;;;;;;;11.13;4.35;;;;;;;-145.69;nan;52167.13;5074615;28;20205;-82
2023/06/22 06:26:27;;;;;;;11.23;4.68;;;;;;;-145.69;nan;52188.91;5074443;28;20543;-82
2023/06/22 06:28:59;;;;;;;11.75;4.90;;;;;;;-145.69;nan;52155.25;5074556;28;20225;-83
2023/06/22 06:31:28;;;;;;;13.18;4.88;;;;;;;-145.69;nan;52151.28;5074528;28;20237;-85
2023/06/22 06:33:57;;;;;;;13.60;4.80;;;;;;;-145.69;nan;52181.00;5073753;28;20207;-83
2023/06/22 06:36:31;;;;;;;17.38;4.95;;;;;;;-145.69;nan;52175.06;5074174;28;20233;-82
2023/06/22 06:39:00;;;;;;;17.33;5.53;;;;;;;-145.69;nan;52151.28;5073648;28;20692;-83
2023/06/22 06:41:32;;;;;;;13.60;4.70;;;;;;;-145.69;nan;52179.03;5074002;28;20226;-82
2023/06/22 06:44:02;;;;;;;13.95;4.53;;;;;;;-145.69;nan;52155.25;5067602;28;20734;-82
2023/06/22 06:46:28;;;;;;;11.80;4.68;;;;;;;-145.69;nan;52145.34;5072802;28;20304;-82
2023/06/22 06:48:55;;;;;;;11.02;4.63;;;;;;;-145.69;nan;52175.06;5072954;28;20233;-83
2023/06/22 06:51:30;;;;;;;13.02;5.43;;;;;;;-145.69;nan;52151.28;5073768;28;20578;-83
2023/06/22 06:53:59;;;;;;;11.15;4.60;;;;;;;-145.69;nan;52202.78;5073833;28;20190;-83
2023/06/22 06:56:27;;;;;;;8.60;4.18;;;;;;;-145.69;nan;52139.41;5067452;28;20191;-83
2023/06/22 06:59:00;;;;;;;11.50;5.25;;;;;;;-145.69;nan;52179.03;5065552;28;20203;-82
2023/06/22 07:01:26;;;;;;;12.88;4.47;;;;;;;-145.69;nan;52157.25;5067046;28;20227;-82
2023/06/22 07:03:57;;;;;;;13.25;4.65;;;;;;;-145.69;nan;52167.13;5070324;28;20206;-82
2023/06/22 07:06:31;;;;;;;13.95;4.90;;;;;;;-145.69;nan;52167.13;5072791;28;20206;-82
2023/06/22 07:09:14;;;;;;;11.77;4.88;;;;;;;-145.69;nan;52149.31;5073151;28;20723;-82
2023/06/22 07:11:45;;;;;;;15.90;5.05;;;;;;;-145.69;nan;52125.56;5053144;28;20209;-84
2023/06/22 07:14:18;;;;;;;13.18;5.20;;;;;;;-145.69;nan;52115.66;5053182;28;20693;-82
2023/06/22 07:16:44;;;;;;;13.57;5.38;;;;;;;-145.69;nan;52155.25;5053381;28;20313;-82
2023/06/22 07:19:15;;;;;;;11.80;5.95;;;;;;;-145.69;nan;52127.53;5053676;28;20214;-82
2023/06/22 07:21:51;;;;;;;14.88;4.80;;;;;;;-145.69;nan;52129.50;5053464;28;20233;-84
2023/06/22 07:24:23;;;;;;;13.35;5.07;;;;;;;-145.69;nan;52139.41;5053418;28;20205;-81
2023/06/22 07:26:52;;;;;;;15.50;4.88;;;;;;;-145.69;nan;52135.47;5053405;28;20231;-81
2023/06/22 07:29:26;;;;;;;16.02;4.90;;;;;;;-145.69;nan;52145.34;5053070;28;20562;-81
2023/06/22 07:31:56;;;;;;;11.15;4.55;;;;;;;-145.69;nan;52139.41;5071894;28;20198;-82
2023/06/22 07:34:25;;;;;;;18.33;4.78;;;;;;;-145.69;nan;52127.53;5053514;28;20202;-82
2023/06/22 07:36:52;;;;;;;11.38;4.68;;;;;;;-145.69;nan;52141.41;5052750;28;20201;-84
2023/06/22 07:39:25;;;;;;;12.55;4.88;;;;;;;-145.69;nan;52107.72;5052064;28;20442;-82
2023/06/22 07:41:54;;;;;;;11.85;4.55;;;;;;;-145.69;nan;52119.63;5053038;28;20278;-82
2023/06/22 07:44:24;;;;;;;11.77;4.50;;;;;;;-145.69;nan;52147.34;5052893;28;20204;-82
2023/06/22 07:46:55;;;;;;;11.32;4.65;;;;;;;-145.69;nan;52107.72;5052373;28;20199;-80
2023/06/22 07:49:33;;;;;;;15.60;5.05;;;;;;;-145.69;nan;52115.66;5052752;28;20281;-81
2023/06/22 07:52:06;;;;;;;21.83;4.65;;;;;;;-145.69;nan;52099.81;5063770;28;20241;-81
2023/06/22 07:54:34;;;;;;;11.70;4.65;;;;;;;-145.69;nan;52103.78;5072065;28;20190;-81
2023/06/22 07:57:03;;;;;;;12.73;4.60;;;;;;;-145.69;nan;52083.97;5072256;28;20553;-81
2023/06/22 07:59:29;;;;;;;10.50;4.38;;;;;;;-145.69;nan;52125.56;5072186;28;20202;-82
2023/06/22 08:02:02;;;;;;;16.08;5.68;;;;;;;-145.69;nan;52080.00;5068390;28;20223;-83
2023/06/22 08:04:28;;;;;;;11.05;5.10;;;;;;;-145.69;nan;52099.81;5070962;28;20210;-82
2023/06/22 08:06:55;;;;;;;10.60;5.43;;;;;;;-145.69;nan;52109.72;5071972;28;20206;-80
2023/06/22 08:09:23;;;;;;;15.32;5.85;;;;;;;-145.69;nan;52111.69;5072432;28;20281;-81
2023/06/22 08:11:57;;;;;;;16.80;6.85;;;;;;;-145.69;nan;52099.81;5072128;28;20687;-83
2023/06/22 08:14:36;;;;;;;13.40;5.95;;;;;;;-145.69;nan;52111.69;5072797;28;20222;-83
2023/06/22 08:17:03;;;;;;;13.80;5.53;;;;;;;-145.69;nan;52125.56;5072558;28;20730;-83
2023/06/22 08:19:33;;;;;;;12.38;4.97;;;;;;;-145.69;nan;52135.47;5072604;28;20245;-82
2023/06/22 08:22:02;;;;;;;13.85;5.68;;;;;;;-145.69;nan;52123.56;5072655;28;20230;-82
2023/06/22 08:24:30;;;;;;;17.02;5.70;;;;;;;-145.69;nan;52119.63;5072454;28;20202;-81
2023/06/22 08:27:14;;;;;;;13.77;6.00;;;;;;;-145.69;nan;52121.59;5072391;28;20199;-83
2023/06/22 08:29:41;;;;;;;15.07;6.15;;;;;;;-145.69;nan;52103.78;5072018;28;20650;-84
2023/06/22 08:32:11;;;;;;;15.18;6.28;;;;;;;-145.69;nan;52111.69;5072761;28;20650;-84
2023/06/22 08:34:46;;;;;;;15.32;6.03;;;;;;;-145.69;nan;52107.72;5072724;28;20202;-88
2023/06/22 08:37:19;;;;;;;16.30;5.72;;;;;;;-145.69;nan;52095.84;5072760;28;20663;-86
2023/06/22 08:39:51;;;;;;;16.60;6.70;;;;;;;-145.69;nan;52103.78;5071900;28;20199;-85
2023/06/22 08:42:37;;;;;;;20.75;7.25;;;;;;;-145.69;nan;52083.97;5073133;28;20226;-86
2023/06/22 08:45:17;;;;;;;14.57;5.93;;;;;;;-145.69;nan;52087.94;5053154;28;20209;-86
2023/06/22 08:47:50;;;;;;;13.13;6.43;;;;;;;-145.69;nan;52105.75;5068459;28;20206;-85
2023/06/22 08:50:17;;;;;;;17.23;7.03;;;;;;;-145.69;nan;52078.03;5072772;28;20214;-85
2023/06/22 08:52:43;;;;;;;14.48;6.53;;;;;;;-145.69;nan;52099.81;5073013;28;20199;-86
2023/06/22 08:55:14;;;;;;;16.67;7.53;;;;;;;-145.69;nan;52117.63;5069888;28;20333;-87
2023/06/22 08:57:42;;;;;;;15.02;6.07;;;;;;;-145.69;nan;52099.81;5075158;28;20226;-86
2023/06/22 09:00:16;;;;;;;15.32;6.60;;;;;;;-145.69;nan;52111.69;5076689;28;20290;-87
2023/06/22 09:02:42;;;;;;;17.08;6.00;;;;;;;-145.69;nan;52066.16;5071629;28;20215;-86
2023/06/22 09:05:10;;;;;;;14.63;5.43;;;;;;;-145.69;nan;52107.72;5075693;28;20209;-86
2023/06/22 09:07:36;;;;;;;22.10;6.47;;;;;;;-145.69;nan;52052.28;5074822;28;20203;-85
2023/06/22 09:10:04;;;;;;;20.05;6.13;;;;;;;-145.69;nan;52076.03;5076101;28;20203;-85
2023/06/22 09:12:32;;;;;;;12.63;5.82;;;;;;;-145.69;nan;52060.22;5076369;28;20210;-86
2023/06/22 09:15:01;;;;;;;15.25;6.30;;;;;;;-145.69;nan;52078.03;5076379;28;20662;-85
2023/06/22 09:17:28;;;;;;;14.00;5.60;;;;;;;-145.69;nan;52062.19;5076152;28;20234;-86
2023/06/22 09:19:54;;;;;;;15.10;5.65;;;;;;;-145.69;nan;52076.03;5074010;28;20199;-85
2023/06/22 09:22:21;;;;;;;23.75;6.43;;;;;;;-145.69;nan;52034.47;5073885;28;20253;-85
2023/06/22 09:24:48;;;;;;;11.13;5.82;;;;;;;-145.69;nan;52048.31;5073899;28;20236;-84
2023/06/22 09:27:14;;;;;;;13.30;5.05;;;;;;;-145.69;nan;52076.03;5074064;28;20708;-85
2023/06/22 09:29:41;;;;;;;17.13;5.18;;;;;;;-145.69;nan;52040.41;5062201;28;20662;-84
2023/06/22 09:32:09;;;;;;;15.20;4.95;;;;;;;-145.69;nan;52028.53;5073782;28;20238;-86
2023/06/22 09:34:41;;;;;;;15.77;5.95;;;;;;;-145.69;nan;52016.66;5074665;28;20789;-85
2023/06/22 09:37:08;;;;;;;15.82;4.78;;;;;;;-145.69;nan;51996.84;5075674;28;20728;-86
2023/06/22 09:39:34;;;;;;;14.82;4.90;;;;;;;-145.69;nan;51992.88;5075702;28;20293;-86
2023/06/22 09:42:01;;;;;;;13.13;5.35;;;;;;;-145.69;nan;51973.06;5075520;28;20619;-85
2023/06/22 09:44:27;;;;;;;14.60;4.90;;;;;;;-145.69;nan;51982.97;5075746;28;20283;-85
2023/06/22 09:46:54;;;;;;;11.82;4.70;;;;;;;-145.69;nan;51961.19;5075763;28;20210;-86
2023/06/22 09:49:22;;;;;;;8.50;4.20;;;;;;;-145.69;nan;51943.38;5075138;28;20692;-86
2023/06/22 09:51:49;;;;;;;14.75;4.72;;;;;;;-145.69;nan;51955.25;5075002;28;20199;-85
2023/06/22 09:54:16;;;;;;;16.45;4.47;;;;;;;-145.69;nan;51951.28;5075148;28;20202;-84
2023/06/22 09:56:42;;;;;;;14.38;4.72;;;;;;;-145.69;nan;51977.03;5075166;28;20206;-85
2023/06/22 09:59:09;;;;;;;15.05;4.75;;;;;;;-145.69;nan;51984.97;5075380;28;20198;-85
2023/06/22 10:01:35;;;;;;;14.40;4.20;;;;;;;-145.69;nan;51973.06;5075307;28;20223;-86
2023/06/22 10:04:03;;;;;;;14.20;4.55;;;;;;;-145.69;nan;51953.28;5075064;28;20209;-85
2023/06/22 10:06:31;;;;;;;12.35;4.35;;;;;;;-145.69;nan;51943.38;5074311;28;20650;-85
2023/06/22 10:08:57;;;;;;;17.20;4.15;;;;;;;-145.69;nan;51941.41;5074559;28;20618;-85
2023/06/22 10:11:28;;;;;;;10.13;4.00;;;;;;;-145.69;nan;51941.41;5074728;28;20207;-85
2023/06/22 10:13:55;;;;;;;17.02;4.28;;;;;;;-145.69;nan;51935.47;5075078;28;20202;-86
2023/06/22 10:16:22;;;;;;;12.48;4.25;;;;;;;-145.69;nan;51907.72;5075029;28;20199;-85
2023/06/22 10:18:48;;;;;;;12.70;4.20;;;;;;;-145.69;nan;51913.69;5074957;28;20207;-85
2023/06/22 10:21:15;;;;;;;12.70;4.22;;;;;;;-145.69;nan;51917.63;5074572;28;20683;-85
2023/06/22 10:23:43;;;;;;;9.77;3.80;;;;;;;-145.69;nan;51870.13;5075063;28;20290;-86
2023/06/22 10:26:09;;;;;;;13.45;4.38;;;;;;;-145.69;nan;51889.91;5074831;28;20203;-86
2023/06/22 10:28:38;;;;;;;17.70;4.35;;;;;;;-145.69;nan;51917.63;5074798;28;20202;-85
2023/06/22 10:31:05;;;;;;;16.38;4.53;;;;;;;-145.69;nan;51897.84;5074752;28;20218;-86
2023/06/22 10:33:31;;;;;;;17.60;4.20;;;;;;;-145.69;nan;51878.03;5074132;28;20545;-86
2023/06/22 10:35:58;;;;;;;18.80;3.88;;;;;;;-145.69;nan;51844.38;5074460;28;20662;-86
2023/06/22 10:38:26;;;;;;;13.98;4.07;;;;;;;-145.69;nan;51852.28;5074199;28;20214;-86
2023/06/22 10:40:54;;;;;;;15.13;4.55;;;;;;;-145.69;nan;51854.28;5074863;28;20234;-86
2023/06/22 10:43:20;;;;;;;14.45;4.18;;;;;;;-145.69;nan;51866.16;5074425;28;20222;-86
2023/06/22 10:45:47;;;;;;;11.70;3.85;;;;;;;-145.69;nan;51878.03;5074513;28;20199;-86
2023/06/22 10:48:13;;;;;;;18.67;4.60;;;;;;;-145.69;nan;51846.34;5074471;28;20245;-86
2023/06/22 10:50:40;;;;;;;7.80;3.70;;;;;;;-145.69;nan;51862.19;5074260;28;20672;-86
2023/06/22 10:53:07;;;;;;;12.50;4.78;;;;;;;-145.69;nan;51854.28;5074296;28;20203;-86
2023/06/22 10:55:33;;;;;;;11.07;4.05;;;;;;;-145.69;nan;51850.31;5074359;28;20203;-86
2023/06/22 10:58:01;;;;;;;12.82;4.13;;;;;;;-145.69;nan;51860.22;5073792;28;20202;-85
2023/06/22 11:00:28;;;;;;;13.77;4.32;;;;;;;-145.69;nan;51854.28;5074179;28;20206;-86
2023/06/22 11:02:54;;;;;;;17.27;5.03;;;;;;;-145.69;nan;51862.19;5073123;28;20226;-86
2023/06/22 11:05:21;;;;;;;10.18;4.03;;;;;;;-145.69;nan;51838.44;5074084;28;20201;-86
2023/06/22 11:07:49;;;;;;;12.88;4.68;;;;;;;-145.69;nan;51840.41;5074124;28;20199;-86
2023/06/22 11:10:16;;;;;;;13.75;4.57;;;;;;;-145.69;nan;51866.16;5074220;28;20207;-86
2023/06/22 11:12:44;;;;;;;16.40;4.47;;;;;;;-145.69;nan;51852.28;5073905;28;20293;-86
2023/06/22 11:15:12;;;;;;;14.63;4.30;;;;;;;-145.69;nan;51838.44;5073872;28;20206;-86
2023/06/22 11:17:39;;;;;;;19.00;4.40;;;;;;;-145.69;nan;51858.22;5073597;28;20199;-86
2023/06/22 11:20:10;;;;;;;16.25;3.97;;;;;;;-145.69;nan;51846.34;5072959;28;20237;-86
2023/06/22 11:22:37;;;;;;;16.70;3.95;;;;;;;-145.69;nan;51858.22;5073426;28;20221;-86
2023/06/22 11:25:04;;;;;;;13.50;4.45;;;;;;;-145.69;nan;51856.25;5073421;28;20206;-86
2023/06/22 11:27:31;;;;;;;12.85;4.13;;;;;;;-145.69;nan;51818.63;5073682;28;20733;-85
2023/06/22 11:29:58;;;;;;;16.30;3.97;;;;;;;-145.69;nan;51822.59;5073605;28;20286;-86
2023/06/22 11:32:25;;;;;;;16.38;3.88;;;;;;;-145.69;nan;51822.59;5072913;28;20194;-85
2023/06/22 11:34:52;;;;;;;19.60;4.40;;;;;;;-145.69;nan;51783.00;5072337;28;20199;-86
2023/06/22 11:37:19;;;;;;;13.23;4.18;;;;;;;-145.69;nan;51814.66;5059847;28;20654;-86
2023/06/22 11:39:45;;;;;;;13.02;3.83;;;;;;;-145.69;nan;51810.72;5068764;28;20282;-86